Time;durP1;ratioP1;P1;durP2;ratioP2;P2;SDS_P1;SDS_P2;PMS_P1;PMS_P2;Temp;Humidity;BMP_temperature;BMP_pressure;BME280_temperature;BME280_humidity;BME280_pressure;Samples;Min_cycle;Max_cycle;Signal;HPM_P1;HPM_P2
2022/01/30 00:00:23;;;;;;;30.07;7.17;;;;;;;7.02;72.98;101212.66;5087274;28;20228;-70
2022/01/30 00:02:49;;;;;;;32.43;6.80;;;;;;;7.04;72.21;101231.41;5071880;28;20185;-70
2022/01/30 00:05:14;;;;;;;30.57;5.93;;;;;;;7.02;72.39;101212.66;5070860;28;20551;-70
2022/01/30 00:07:39;;;;;;;28.53;7.20;;;;;;;7.07;71.97;101218.78;5070550;28;20177;-70
2022/01/30 00:10:10;;;;;;;31.97;6.90;;;;;;;7.02;72.51;101217.75;5071777;28;20693;-70
2022/01/30 00:12:45;;;;;;;34.90;7.17;;;;;;;7.05;72.41;101246.72;5071898;28;20235;-72
2022/01/30 00:15:11;;;;;;;36.63;7.17;;;;;;;7.03;72.81;101238.19;5071705;28;20193;-70
2022/01/30 00:17:43;;;;;;;30.53;6.33;;;;;;;6.88;75.80;101255.38;5071643;28;20185;-70
2022/01/30 00:20:15;;;;;;;32.47;7.50;;;;;;;6.83;75.82;101261.09;5071301;28;20208;-70
2022/01/30 00:22:49;;;;;;;26.60;5.90;;;;;;;6.77;75.62;101254.06;5071177;28;20189;-70
2022/01/30 00:25:18;;;;;;;35.57;6.90;;;;;;;6.71;77.02;101264.00;5071421;28;20180;-70
2022/01/30 00:27:48;;;;;;;28.70;6.20;;;;;;;6.43;80.50;101294.19;5071376;28;20193;-70
2022/01/30 00:30:15;;;;;;;24.60;5.30;;;;;;;6.39;80.91;101266.00;5069729;28;20217;-70
2022/01/30 00:32:41;;;;;;;32.47;6.53;;;;;;;6.39;78.97;101287.22;5069854;28;20177;-70
2022/01/30 00:35:09;;;;;;;29.97;5.53;;;;;;;6.36;79.67;101276.06;5071114;28;20182;-70
2022/01/30 00:37:39;;;;;;;28.23;6.37;;;;;;;6.45;78.14;101289.16;5069813;28;20268;-70
2022/01/30 00:40:06;;;;;;;28.40;5.03;;;;;;;6.41;78.99;101249.13;5070736;28;20216;-70
2022/01/30 00:42:31;;;;;;;32.13;6.03;;;;;;;6.28;79.63;101269.75;5069667;28;20705;-70
2022/01/30 00:44:56;;;;;;;34.63;6.43;;;;;;;6.25;78.67;101252.69;5053091;28;20216;-70
2022/01/30 00:47:22;;;;;;;27.17;6.10;;;;;;;6.30;78.55;101255.41;5069616;28;20231;-72
2022/01/30 00:49:47;;;;;;;30.50;6.63;;;;;;;6.35;77.97;101261.59;5069189;28;20205;-71
2022/01/30 00:52:16;;;;;;;33.47;6.70;;;;;;;6.35;78.51;101259.06;5052614;28;20255;-70
2022/01/30 00:54:42;;;;;;;37.23;7.23;;;;;;;6.39;77.25;101250.72;5066082;28;20190;-71
2022/01/30 00:57:07;;;;;;;35.97;6.57;;;;;;;6.45;76.08;101231.50;5049396;28;20572;-70
2022/01/30 00:59:33;;;;;;;39.13;7.50;;;;;;;6.45;77.50;101269.66;5049089;28;20699;-70
2022/01/30 01:01:58;;;;;;;37.07;6.67;;;;;;;6.32;77.57;101236.03;5049300;28;20718;-70
2022/01/30 01:04:23;;;;;;;31.20;7.43;;;;;;;6.29;77.45;101252.03;5049377;28;20190;-70
2022/01/30 01:06:50;;;;;;;35.97;6.70;;;;;;;6.29;77.15;101252.03;5050649;28;20710;-70
2022/01/30 01:09:17;;;;;;;31.77;6.63;;;;;;;6.34;76.73;101240.38;5070379;28;20620;-70
2022/01/30 01:12:13;;;;;;;38.50;7.53;;;;;;;6.39;76.47;101249.06;5052586;28;20177;-70
2022/01/30 01:25:35;;;;;;;21.13;4.80;;;;;;;5.87;80.13;101290.81;5069202;28;20189;-70
2022/01/30 01:28:00;;;;;;;22.53;4.97;;;;;;;5.84;77.39;101274.59;5085607;28;20254;-70
2022/01/30 01:30:25;;;;;;;23.97;4.73;;;;;;;5.91;77.29;101295.25;5085622;28;20259;-70
2022/01/30 01:32:51;;;;;;;21.20;5.87;;;;;;;5.81;79.37;101293.06;5068823;28;20189;-70
2022/01/30 01:35:17;;;;;;;21.53;5.27;;;;;;;5.87;78.25;101289.94;5067992;28;20184;-70
2022/01/30 01:37:42;;;;;;;30.20;5.67;;;;;;;6.02;77.80;101294.03;5070016;28;20181;-70
2022/01/30 01:40:08;;;;;;;24.47;5.93;;;;;;;6.01;78.20;101293.97;5085432;28;20219;-70
2022/01/30 01:42:35;;;;;;;26.97;5.90;;;;;;;6.06;77.63;101273.03;5068572;28;20217;-70
2022/01/30 01:45:02;;;;;;;30.63;7.30;;;;;;;6.13;77.31;101280.13;5068605;28;20181;-72
2022/01/30 01:47:31;;;;;;;27.10;6.50;;;;;;;6.21;75.77;101288.13;5068505;28;20250;-70
2022/01/30 01:49:57;;;;;;;27.87;6.00;;;;;;;6.27;75.95;101263.78;5084825;28;20201;-70
2022/01/30 01:52:26;;;;;;;30.13;5.57;;;;;;;6.26;75.20;101261.22;5070126;28;20234;-72
2022/01/30 01:54:53;;;;;;;23.40;5.07;;;;;;;6.25;76.40;101275.59;5085481;28;20181;-70
2022/01/30 01:57:19;;;;;;;22.00;5.07;;;;;;;6.26;76.96;101295.13;5085559;28;20173;-70
2022/01/30 01:59:52;;;;;;;27.50;5.97;;;;;;;6.29;76.70;101271.50;5084891;28;20213;-72
2022/01/30 02:02:38;;;;;;;21.27;4.77;;;;;;;6.24;77.44;101271.31;5069528;28;20316;-72
2022/01/30 02:05:05;;;;;;;29.83;4.47;;;;;;;6.25;77.67;101262.00;5085095;28;20289;-72
2022/01/30 02:08:07;;;;;;;27.47;5.93;;;;;;;6.23;77.47;101281.41;5068313;28;20196;-70
2022/01/30 02:10:36;;;;;;;26.27;5.50;;;;;;;6.25;77.90;101272.16;5067803;28;20212;-72
2022/01/30 02:13:28;;;;;;;31.67;6.13;;;;;;;6.28;77.82;101277.38;5051579;28;20177;-70
2022/01/30 02:23:57;;;;;;;20.37;5.60;;;;;;;6.31;76.99;101285.16;5068168;28;20220;-72
2022/01/30 02:24:11;;;;;;;25.30;5.30;;;;;;;6.37;74.87;101287.97;5049369;28;20173;-72
2022/01/30 02:26:41;;;;;;;32.03;7.17;;;;;;;6.40;74.65;101273.69;5064712;28;20192;-72
2022/01/30 02:29:06;;;;;;;23.80;5.47;;;;;;;6.16;77.08;101277.72;5064442;28;20296;-72
2022/01/30 02:31:35;;;;;;;27.57;6.67;;;;;;;6.12;78.43;101267.38;5064792;28;20264;-72
2022/01/30 02:34:02;;;;;;;24.53;5.57;;;;;;;6.10;79.05;101264.75;5048077;28;20284;-72
2022/01/30 02:36:27;;;;;;;28.50;6.23;;;;;;;6.07;78.01;101245.94;5064749;28;20193;-70
2022/01/30 02:38:57;;;;;;;30.73;7.27;;;;;;;6.01;78.88;101287.22;5048049;28;20205;-72
2022/01/30 02:41:22;;;;;;;34.90;7.37;;;;;;;6.04;77.03;101287.34;5049632;28;20544;-72
2022/01/30 02:44:05;;;;;;;33.43;6.80;;;;;;;6.07;77.17;101286.59;5047912;28;20181;-72
2022/01/30 02:46:34;;;;;;;34.20;6.57;;;;;;;6.11;76.36;101275.78;5049861;28;20276;-72
2022/01/30 02:49:12;;;;;;;33.47;6.30;;;;;;;6.13;76.82;101302.16;5051740;28;20206;-73
2022/01/30 02:51:46;;;;;;;29.77;7.23;;;;;;;6.12;76.29;101313.13;5051870;28;20193;-72
2022/01/30 02:54:13;;;;;;;34.97;7.97;;;;;;;6.12;75.50;101302.97;5068474;28;20177;-72
2022/01/30 02:56:40;;;;;;;33.50;6.93;;;;;;;6.09;75.76;101305.34;5051713;28;20197;-72
2022/01/30 02:59:06;;;;;;;30.30;6.33;;;;;;;6.01;74.75;101286.34;5058745;28;20220;-72
2022/01/30 03:01:31;;;;;;;27.50;6.13;;;;;;;6.03;73.74;101295.78;5071541;28;20272;-72
2022/01/30 03:03:56;;;;;;;26.00;5.53;;;;;;;6.01;72.16;101276.19;5071577;28;20238;-72
2022/01/30 03:06:22;;;;;;;30.03;5.23;;;;;;;6.01;71.83;101312.63;5071485;28;20282;-72
2022/01/30 03:08:47;;;;;;;31.47;5.77;;;;;;;6.06;71.58;101295.03;5088028;28;20208;-72
2022/01/30 03:11:12;;;;;;;25.03;5.20;;;;;;;6.05;71.33;101290.75;5071266;28;20540;-72
2022/01/30 03:13:38;;;;;;;22.07;5.47;;;;;;;6.09;70.66;101285.91;5071129;28;20193;-72
2022/01/30 03:16:03;;;;;;;24.67;5.50;;;;;;;5.98;71.68;101307.41;5088176;28;20197;-72
2022/01/30 03:18:31;;;;;;;25.43;5.20;;;;;;;5.97;72.77;101298.06;5087758;28;20193;-72
2022/01/30 03:20:57;;;;;;;30.87;7.20;;;;;;;6.01;72.69;101307.56;5070961;28;20209;-72
2022/01/30 03:23:22;;;;;;;25.20;5.47;;;;;;;6.10;73.20;101289.28;5053175;28;20209;-72
2022/01/30 03:25:54;;;;;;;31.07;6.90;;;;;;;6.13;73.36;101292.84;5051970;28;20239;-72
2022/01/30 03:28:25;;;;;;;30.63;6.87;;;;;;;6.11;73.35;101312.25;5050994;28;20246;-72
2022/01/30 03:31:00;;;;;;;33.03;6.77;;;;;;;6.06;73.01;101298.47;5051155;28;20188;-72
2022/01/30 03:33:40;;;;;;;28.87;6.40;;;;;;;6.05;71.51;101295.84;5051161;28;20181;-72
2022/01/30 03:36:06;;;;;;;27.10;6.27;;;;;;;6.01;72.15;101289.78;5050981;28;20196;-72
2022/01/30 03:38:32;;;;;;;30.97;6.50;;;;;;;6.03;70.24;101280.53;5055650;28;20197;-72
2022/01/30 03:40:57;;;;;;;25.87;6.33;;;;;;;6.01;70.95;101297.41;5070866;28;20263;-72
2022/01/30 03:43:23;;;;;;;30.77;6.20;;;;;;;5.99;71.31;101286.28;5062233;28;20189;-72
2022/01/30 03:45:49;;;;;;;34.33;7.63;;;;;;;6.04;70.73;101312.75;5051445;28;20181;-72
2022/01/30 03:48:15;;;;;;;30.23;6.13;;;;;;;6.08;70.63;101323.97;5050843;28;20344;-72
2022/01/30 03:50:59;;;;;;;32.73;7.13;;;;;;;6.00;71.29;101313.44;5052709;28;20277;-72
2022/01/30 03:53:25;;;;;;;29.20;6.37;;;;;;;5.92;71.59;101322.41;5051004;28;20289;-72
2022/01/30 03:55:50;;;;;;;29.10;6.00;;;;;;;5.94;71.96;101332.63;5057189;28;20208;-72
2022/01/30 03:58:24;;;;;;;25.67;6.77;;;;;;;5.96;71.79;101338.63;5069844;28;20189;-72
2022/01/30 04:00:49;;;;;;;31.20;7.00;;;;;;;6.05;70.92;101341.59;5087429;28;20238;-72
2022/01/30 04:03:15;;;;;;;26.67;5.90;;;;;;;6.05;71.15;101359.38;5087533;28;20196;-72
2022/01/30 04:05:41;;;;;;;27.80;6.40;;;;;;;6.05;71.57;101344.13;5087377;28;20574;-72
2022/01/30 04:08:07;;;;;;;24.37;5.93;;;;;;;6.09;70.41;101336.75;5070386;28;20219;-72
2022/01/30 04:10:37;;;;;;;27.03;5.60;;;;;;;6.01;71.40;101338.06;5087148;28;20228;-72
2022/01/30 04:13:18;;;;;;;28.37;5.73;;;;;;;6.00;70.77;101354.13;5070349;28;20589;-72
2022/01/30 04:16:02;;;;;;;27.90;6.10;;;;;;;5.94;71.06;101353.81;5071974;28;20196;-72
2022/01/30 04:18:43;;;;;;;27.37;5.43;;;;;;;5.87;70.76;101353.47;5072216;28;20213;-72
2022/01/30 04:21:22;;;;;;;24.23;5.47;;;;;;;5.90;70.08;101343.44;5070350;28;20653;-72
2022/01/30 04:24:20;;;;;;;26.77;4.80;;;;;;;6.03;69.62;101338.97;5048208;28;20193;-72
2022/01/30 04:26:56;;;;;;;18.33;4.77;;;;;;;6.02;69.30;101351.63;5070260;28;20679;-72
2022/01/30 04:29:48;;;;;;;20.73;4.90;;;;;;;6.05;69.93;101372.97;5054919;28;20221;-72
2022/01/30 04:32:20;;;;;;;26.53;5.97;;;;;;;6.01;70.66;101370.22;5070320;28;20264;-72
2022/01/30 04:35:21;;;;;;;23.23;5.13;;;;;;;6.03;70.61;101381.34;5070932;28;20202;-72
2022/01/30 04:38:03;;;;;;;22.17;5.27;;;;;;;5.99;71.09;101377.75;5082691;28;20182;-72
2022/01/30 04:53:14;;;;;;;27.77;6.40;;;;;;;6.21;68.92;101407.59;5070735;28;20599;-72
2022/01/30 04:56:40;;;;;;;30.00;5.00;;;;;;;6.20;68.79;101421.09;5070924;28;20568;-72
2022/01/30 04:59:28;;;;;;;25.33;4.97;;;;;;;6.32;67.65;101426.75;5075140;28;20196;-72
2022/01/30 05:07:28;;;;;;;31.00;7.20;;;;;;;6.34;69.46;101432.75;5064835;28;20185;-72
2022/01/30 05:10:14;;;;;;;30.87;6.23;;;;;;;6.33;69.34;101403.06;5037403;28;20255;-72
2022/01/30 05:12:54;;;;;;;34.60;7.27;;;;;;;6.33;69.73;101426.81;5065748;28;20233;-72
2022/01/30 05:15:52;;;;;;;30.07;6.57;;;;;;;6.37;69.49;101427.81;5034972;28;20204;-72
2022/01/30 05:18:29;;;;;;;31.77;6.93;;;;;;;6.28;70.15;101402.84;5059860;28;20209;-72
2022/01/30 05:21:13;;;;;;;31.37;6.23;;;;;;;6.30;70.60;101401.25;5068118;28;20701;-72
2022/01/30 05:23:46;;;;;;;26.80;5.87;;;;;;;6.30;69.89;101386.00;5065074;28;20185;-72
2022/01/30 05:26:18;;;;;;;28.43;7.07;;;;;;;6.31;70.07;101405.53;5064725;28;20261;-72
2022/01/30 05:29:04;;;;;;;30.00;6.63;;;;;;;6.39;68.84;101398.22;5062959;28;20205;-72
2022/01/30 05:32:02;;;;;;;27.77;5.37;;;;;;;6.33;70.46;101397.97;5050347;28;20681;-72
2022/01/30 05:34:39;;;;;;;28.67;6.33;;;;;;;6.30;70.73;101403.78;5057865;28;20216;-72
2022/01/30 05:37:39;;;;;;;30.40;6.33;;;;;;;6.18;71.23;101415.94;5047091;28;20190;-72
2022/01/30 05:40:31;;;;;;;36.90;7.10;;;;;;;6.22;71.11;101404.25;5066932;28;20224;-72
2022/01/30 05:43:17;;;;;;;32.77;6.63;;;;;;;6.16;71.45;101420.09;5063642;28;20299;-72
2022/01/30 05:46:11;;;;;;;23.57;6.03;;;;;;;6.16;70.22;101402.28;5062981;28;20211;-72
2022/01/30 05:48:48;;;;;;;28.77;6.27;;;;;;;6.19;70.36;101417.69;5062046;28;20232;-72
2022/01/30 05:51:24;;;;;;;28.03;6.07;;;;;;;6.25;68.67;101425.59;5048457;28;20751;-72
2022/01/30 05:53:52;;;;;;;27.20;6.43;;;;;;;6.24;69.13;101428.06;5048443;28;20197;-72
2022/01/30 05:56:21;;;;;;;34.00;6.03;;;;;;;6.16;70.57;101462.41;5052025;28;20853;-72
2022/01/30 05:58:47;;;;;;;27.40;7.03;;;;;;;6.19;69.76;101463.47;5084951;28;20293;-72
2022/01/30 06:01:39;;;;;;;25.10;5.53;;;;;;;6.16;70.74;101460.75;5068283;28;20228;-72
2022/01/30 06:04:19;;;;;;;34.13;7.07;;;;;;;6.17;70.18;101495.53;5085215;28;20188;-72
2022/01/30 06:06:50;;;;;;;29.33;6.00;;;;;;;6.14;70.72;101481.81;5085064;28;20204;-72
2022/01/30 06:11:50;;;;;;;33.93;7.07;;;;;;;6.16;70.52;101490.38;5085054;28;20192;-72
2022/01/30 06:14:20;;;;;;;32.87;6.30;;;;;;;6.12;71.75;101480.91;5068609;28;20187;-72
2022/01/30 06:16:45;;;;;;;30.47;6.40;;;;;;;6.14;70.69;101439.50;5068493;28;20268;-72
2022/01/30 06:19:46;;;;;;;32.87;6.30;;;;;;;6.11;71.64;101477.47;5069201;28;20228;-72
2022/01/30 06:22:31;;;;;;;30.00;6.70;;;;;;;6.16;72.24;101462.41;5069457;28;20224;-72
2022/01/30 06:25:32;;;;;;;25.40;5.80;;;;;;;6.11;72.26;101482.56;5026884;28;20233;-72
2022/01/30 06:28:15;;;;;;;31.97;6.10;;;;;;;6.07;72.91;101462.88;5064450;28;20700;-72
2022/01/30 06:30:59;;;;;;;36.13;6.83;;;;;;;6.07;72.23;101495.03;5069372;28;20203;-72
2022/01/30 06:33:44;;;;;;;24.83;5.17;;;;;;;6.09;72.00;101485.81;5069278;28;20292;-72
2022/01/30 06:36:28;;;;;;;25.73;4.60;;;;;;;6.04;73.00;101490.69;5069272;28;20238;-72
2022/01/30 06:39:12;;;;;;;28.27;5.30;;;;;;;5.99;73.69;101514.16;5069427;28;20219;-72
2022/01/30 06:41:50;;;;;;;24.70;5.80;;;;;;;6.01;72.87;101531.22;5067745;28;20612;-71
2022/01/30 06:44:38;;;;;;;23.73;5.13;;;;;;;6.02;74.05;101545.66;5059510;28;20540;-72
2022/01/30 06:47:23;;;;;;;26.33;5.13;;;;;;;5.96;74.54;101536.88;5069166;28;20199;-71
2022/01/30 06:50:12;;;;;;;31.03;5.97;;;;;;;5.97;74.59;101552.19;5068786;28;20300;-71
2022/01/30 06:53:10;;;;;;;29.93;6.47;;;;;;;6.01;74.71;101581.16;5049122;28;20276;-72
2022/01/30 06:55:56;;;;;;;32.50;6.67;;;;;;;6.00;74.63;101562.53;5037462;28;20203;-71
2022/01/30 06:58:40;;;;;;;32.30;7.03;;;;;;;6.03;75.00;101584.69;5082430;28;20253;-71
2022/01/30 07:01:25;;;;;;;28.83;6.03;;;;;;;6.10;73.59;101551.13;5069108;28;20760;-71
2022/01/30 07:04:22;;;;;;;28.80;5.77;;;;;;;6.08;73.46;101573.06;5067971;28;20544;-71
2022/01/30 07:07:05;;;;;;;29.53;6.60;;;;;;;6.06;74.06;101555.19;5067737;28;20219;-71
2022/01/30 07:09:31;;;;;;;36.70;7.10;;;;;;;6.09;73.11;101572.25;5067543;28;20209;-72
2022/01/30 07:11:57;;;;;;;35.70;6.50;;;;;;;6.09;73.01;101606.19;5068941;28;20177;-71
2022/01/30 07:14:22;;;;;;;34.70;6.17;;;;;;;6.13;72.15;101590.25;5051785;28;20221;-71
2022/01/30 07:16:47;;;;;;;37.53;7.73;;;;;;;6.10;72.59;101609.59;5068206;28;20204;-71
2022/01/30 07:19:13;;;;;;;29.17;6.20;;;;;;;6.05;73.02;101616.09;5068014;28;20212;-72
2022/01/30 07:21:38;;;;;;;29.23;6.60;;;;;;;6.08;72.00;101639.16;5067222;28;20216;-70
2022/01/30 07:24:04;;;;;;;39.20;8.23;;;;;;;6.05;72.95;101622.09;5067170;28;20239;-74
2022/01/30 07:26:32;;;;;;;32.50;7.27;;;;;;;6.16;71.97;101632.75;5067304;28;20251;-72
2022/01/30 07:28:57;;;;;;;33.93;6.63;;;;;;;6.02;72.84;101632.09;5061944;28;20287;-72
2022/01/30 07:31:22;;;;;;;28.13;5.70;;;;;;;6.02;73.21;101627.00;5064915;28;20272;-71
2022/01/30 07:33:47;;;;;;;35.30;6.90;;;;;;;6.06;72.53;101600.06;5071158;28;20192;-71
2022/01/30 07:36:13;;;;;;;30.57;7.20;;;;;;;6.07;72.24;101619.59;5072253;28;20193;-71
2022/01/30 07:38:38;;;;;;;25.97;6.30;;;;;;;6.06;73.18;101635.63;5071825;28;20222;-72
2022/01/30 07:41:04;;;;;;;31.23;6.27;;;;;;;6.04;72.68;101635.56;5072013;28;20208;-72
2022/01/30 07:43:30;;;;;;;38.23;7.70;;;;;;;6.05;73.32;101629.72;5071922;28;20181;-71
2022/01/30 07:46:03;;;;;;;31.90;6.87;;;;;;;6.07;73.90;101648.44;5070572;28;20268;-72
2022/01/30 07:48:29;;;;;;;42.57;8.53;;;;;;;6.07;73.47;101634.84;5071511;28;20272;-71
2022/01/30 07:50:54;;;;;;;35.60;8.07;;;;;;;6.09;74.02;101651.94;5071705;28;20280;-72
2022/01/30 07:53:19;;;;;;;46.57;7.93;;;;;;;6.09;73.18;101638.34;5070122;28;20227;-71
2022/01/30 07:55:45;;;;;;;39.40;8.60;;;;;;;6.11;72.76;101657.97;5062129;28;20185;-71
2022/01/30 07:58:10;;;;;;;43.60;8.87;;;;;;;6.12;73.10;101674.09;5051473;28;20190;-71
2022/01/30 08:00:37;;;;;;;38.60;7.43;;;;;;;6.17;72.17;101700.63;5051582;28;20232;-71
2022/01/30 08:03:03;;;;;;;36.20;7.83;;;;;;;6.17;71.21;101703.16;5051649;28;20267;-71
2022/01/30 08:05:28;;;;;;;37.23;8.37;;;;;;;6.20;70.69;101705.84;5068381;28;20185;-71
2022/01/30 08:07:53;;;;;;;37.63;8.23;;;;;;;6.25;69.95;101723.09;5071192;28;20771;-71
2022/01/30 08:10:19;;;;;;;26.53;7.20;;;;;;;6.22;70.63;101715.28;5071296;28;20307;-71
2022/01/30 08:12:44;;;;;;;40.27;7.93;;;;;;;6.22;69.99;101732.25;5071385;28;20177;-72
2022/01/30 08:15:10;;;;;;;39.63;8.47;;;;;;;6.29;68.64;101716.47;5071157;28;20177;-72
2022/01/30 08:17:37;;;;;;;36.80;8.37;;;;;;;6.29;68.84;101750.41;5070115;28;20185;-72
2022/01/30 08:20:03;;;;;;;35.30;8.57;;;;;;;6.35;67.75;101739.69;5070878;28;20221;-72
2022/01/30 08:22:30;;;;;;;39.07;7.83;;;;;;;6.34;69.06;101731.19;5062901;28;20659;-71
2022/01/30 08:24:56;;;;;;;38.97;8.23;;;;;;;6.32;69.18;101744.63;5069596;28;20188;-71
2022/01/30 08:27:21;;;;;;;38.30;7.47;;;;;;;6.34;67.88;101717.56;5071140;28;20670;-72
2022/01/30 08:29:46;;;;;;;38.27;8.43;;;;;;;6.38;68.16;101735.63;5070582;28;20209;-72
2022/01/30 08:32:12;;;;;;;44.33;8.30;;;;;;;6.36;68.82;101732.13;5070804;28;20264;-72
2022/01/30 08:34:40;;;;;;;41.03;8.00;;;;;;;6.34;67.70;101733.72;5071012;28;20720;-72
2022/01/30 08:37:06;;;;;;;30.43;7.90;;;;;;;6.37;68.70;101738.09;5069758;28;20200;-72
2022/01/30 08:39:33;;;;;;;37.77;7.53;;;;;;;6.38;67.25;101734.75;5070790;28;20209;-72
2022/01/30 08:41:58;;;;;;;43.80;8.03;;;;;;;6.41;67.73;101734.91;5070984;28;20211;-72
2022/01/30 08:44:23;;;;;;;35.40;7.37;;;;;;;6.42;66.43;101729.00;5071105;28;20193;-72
2022/01/30 08:46:49;;;;;;;40.77;7.53;;;;;;;6.44;66.56;101752.88;5077703;28;20189;-72
2022/01/30 08:49:14;;;;;;;37.37;7.60;;;;;;;6.45;67.31;101739.34;5058948;28;20221;-72
2022/01/30 08:51:40;;;;;;;34.43;8.50;;;;;;;6.45;65.96;101763.09;5061317;28;20190;-72
2022/01/30 08:54:05;;;;;;;32.77;7.60;;;;;;;6.50;65.30;101759.13;5058848;28;20200;-72
2022/01/30 08:56:30;;;;;;;37.33;9.20;;;;;;;6.54;64.81;101770.34;5056624;28;20323;-72
2022/01/30 08:58:56;;;;;;;34.53;6.33;;;;;;;6.54;64.76;101781.38;5063031;28;20213;-72
2022/01/30 09:01:21;;;;;;;34.47;7.93;;;;;;;6.56;62.89;101797.59;5058797;28;20217;-72
2022/01/30 09:03:46;;;;;;;37.60;7.93;;;;;;;6.57;61.72;101808.63;5070134;28;20189;-72
2022/01/30 09:06:11;;;;;;;28.23;6.47;;;;;;;6.55;61.74;101822.97;5070408;28;20185;-72
2022/01/30 09:08:37;;;;;;;37.70;7.30;;;;;;;6.56;62.12;101807.78;5070041;28;20199;-72
2022/01/30 09:11:02;;;;;;;34.97;6.83;;;;;;;6.57;62.10;101836.63;5070333;28;20189;-72
2022/01/30 09:13:27;;;;;;;31.57;7.50;;;;;;;6.55;61.30;101826.41;5070130;28;20216;-72
2022/01/30 09:15:59;;;;;;;31.60;7.27;;;;;;;6.55;62.14;101828.06;5069861;28;20192;-72
2022/01/30 09:18:26;;;;;;;33.13;7.60;;;;;;;6.54;61.51;101828.84;5069747;28;20201;-72
2022/01/30 09:20:53;;;;;;;35.10;7.47;;;;;;;6.53;61.61;101830.50;5070037;28;20249;-72
2022/01/30 09:23:19;;;;;;;30.30;7.13;;;;;;;6.54;60.67;101821.22;5065764;28;20231;-72
2022/01/30 09:25:46;;;;;;;37.07;7.23;;;;;;;6.53;61.19;101827.06;5068785;28;20597;-74
2022/01/30 09:28:11;;;;;;;37.97;6.60;;;;;;;6.60;61.65;101836.78;5069866;28;20192;-72
2022/01/30 09:30:36;;;;;;;24.57;6.17;;;;;;;6.61;60.89;101841.97;5069614;28;20201;-72
2022/01/30 09:33:02;;;;;;;32.27;7.17;;;;;;;6.68;61.46;101828.72;5070030;28;20208;-72
2022/01/30 09:35:27;;;;;;;26.77;6.40;;;;;;;6.82;60.30;101825.22;5069037;28;20557;-72
2022/01/30 09:37:53;;;;;;;36.50;7.63;;;;;;;7.08;59.61;101849.41;5069978;28;20192;-71
2022/01/30 09:40:18;;;;;;;31.00;7.10;;;;;;;6.98;59.78;101825.19;5068441;28;20216;-72
2022/01/30 09:42:45;;;;;;;30.60;6.73;;;;;;;7.09;60.17;101843.53;5061068;28;20324;-72
2022/01/30 09:45:16;;;;;;;34.37;7.77;;;;;;;8.13;56.88;101827.31;5069594;28;20185;-73
2022/01/30 09:47:41;;;;;;;34.93;7.13;;;;;;;8.73;56.56;101852.97;5051584;28;20262;-73
2022/01/30 09:50:09;;;;;;;36.53;7.13;;;;;;;7.45;59.29;101850.38;5069289;28;20213;-73
2022/01/30 09:52:36;;;;;;;34.20;7.90;;;;;;;8.24;57.58;101855.88;5069500;28;20464;-73
2022/01/30 09:55:03;;;;;;;32.70;8.17;;;;;;;8.36;57.54;101839.44;5068185;28;20654;-73
2022/01/30 09:57:28;;;;;;;32.77;7.80;;;;;;;7.69;58.88;101851.56;5069614;28;20169;-72
2022/01/30 09:59:55;;;;;;;36.47;7.87;;;;;;;8.49;58.01;101851.94;5069717;28;20266;-72
2022/01/30 10:02:25;;;;;;;34.43;7.33;;;;;;;7.77;59.38;101871.50;5068311;28;20260;-72
2022/01/30 10:04:51;;;;;;;35.57;7.37;;;;;;;7.66;58.39;101874.34;5069338;28;20189;-72
2022/01/30 10:07:20;;;;;;;39.70;7.10;;;;;;;8.37;56.22;101876.91;5069491;28;20199;-72
2022/01/30 10:09:47;;;;;;;39.30;7.80;;;;;;;7.91;58.80;101877.25;5069167;28;20216;-73
2022/01/30 10:12:23;;;;;;;31.37;7.67;;;;;;;7.97;57.68;101878.41;5069492;28;20192;-73
2022/01/30 10:15:06;;;;;;;35.23;7.23;;;;;;;7.52;59.22;101900.88;5069192;28;20195;-73
2022/01/30 10:17:46;;;;;;;46.40;8.83;;;;;;;7.43;59.19;101886.00;5069115;28;20200;-73
2022/01/30 10:20:17;;;;;;;34.47;8.27;;;;;;;7.42;60.84;101898.66;5068994;28;20216;-72
2022/01/30 10:22:50;;;;;;;47.97;9.47;;;;;;;7.31;59.82;101904.91;5059945;28;20592;-72
2022/01/30 10:25:29;;;;;;;37.83;8.57;;;;;;;7.26;61.69;101904.69;5049072;28;20247;-73
2022/01/30 10:28:21;;;;;;;33.27;6.80;;;;;;;7.21;61.20;101931.59;5065784;28;20193;-72
2022/01/30 10:30:52;;;;;;;49.17;8.60;;;;;;;7.36;61.10;101927.25;5069051;28;20204;-72
2022/01/30 10:33:19;;;;;;;40.97;8.17;;;;;;;7.48;59.99;101921.91;5068237;28;20193;-72
2022/01/30 10:36:12;;;;;;;39.53;8.70;;;;;;;7.33;60.92;101924.56;5069170;28;20693;-72
2022/01/30 10:38:48;;;;;;;47.67;8.07;;;;;;;7.40;58.69;101934.25;5066958;28;20196;-71
2022/01/30 10:41:30;;;;;;;30.47;7.10;;;;;;;7.64;59.41;101949.88;5068557;28;20300;-71
2022/01/30 10:44:00;;;;;;;36.53;7.40;;;;;;;8.02;58.31;101944.94;5068899;28;20254;-72
2022/01/30 10:46:31;;;;;;;29.77;7.10;;;;;;;8.01;56.45;101938.09;5067584;28;20211;-72
2022/01/30 10:49:01;;;;;;;35.60;6.93;;;;;;;7.79;57.21;101946.38;5068493;28;20546;-71
2022/01/30 10:51:29;;;;;;;36.97;7.67;;;;;;;7.96;57.62;101954.81;5067766;28;20192;-71
2022/01/30 10:54:06;;;;;;;33.83;8.03;;;;;;;9.21;54.76;101946.16;5067768;28;20213;-71
2022/01/30 10:56:32;;;;;;;31.17;7.57;;;;;;;7.88;59.02;101963.81;5050451;27;20183;-71
2022/01/30 10:59:20;;;;;;;39.87;8.50;;;;;;;7.73;58.51;101960.50;5068992;28;20288;-71
2022/01/30 11:01:50;;;;;;;30.40;7.37;;;;;;;8.56;55.12;101952.59;5069220;28;20578;-72
2022/01/30 11:04:30;;;;;;;37.07;7.67;;;;;;;7.88;55.06;101962.13;5069263;28;20189;-71
2022/01/30 11:06:57;;;;;;;38.07;8.27;;;;;;;8.01;56.36;101972.09;5067924;28;20189;-71
2022/01/30 11:09:31;;;;;;;43.90;8.10;;;;;;;9.27;53.36;101977.91;5065260;28;20293;-71
2022/01/30 11:12:06;;;;;;;32.80;7.90;;;;;;;8.77;55.38;101979.09;5051686;28;20644;-71
2022/01/30 11:17:16;;;;;;;33.57;7.67;;;;;;;8.09;55.29;101992.88;5089986;28;20195;-71
2022/01/30 11:19:44;;;;;;;37.23;8.10;;;;;;;8.34;54.89;101998.38;5071836;28;20991;-72
2022/01/30 11:22:11;;;;;;;37.23;8.00;;;;;;;8.17;55.39;101994.13;5072389;28;20205;-71
2022/01/30 11:24:45;;;;;;;36.07;7.67;;;;;;;8.32;56.20;101999.97;5070933;28;20189;-71
2022/01/30 11:27:11;;;;;;;34.50;7.40;;;;;;;8.02;56.51;101983.19;5072186;28;20654;-71
2022/01/30 11:29:37;;;;;;;36.93;8.73;;;;;;;7.88;56.34;101985.06;5071721;28;20205;-71
2022/01/30 11:32:07;;;;;;;38.77;8.03;;;;;;;7.75;57.79;102000.59;5072012;28;20177;-71
2022/01/30 11:34:37;;;;;;;39.27;7.53;;;;;;;7.82;58.51;102002.63;5070570;28;20240;-72
2022/01/30 11:37:04;;;;;;;38.87;9.27;;;;;;;7.91;58.06;102015.81;5072216;28;20235;-71
2022/01/30 11:39:30;;;;;;;42.73;8.60;;;;;;;8.02;57.20;102007.00;5070539;28;20296;-71
2022/01/30 11:42:08;;;;;;;32.33;7.93;;;;;;;8.04;57.73;102013.06;5071988;28;20418;-71
2022/01/30 11:44:33;;;;;;;34.73;7.73;;;;;;;8.02;58.29;102012.09;5071954;28;20184;-71
2022/01/30 11:46:58;;;;;;;37.40;7.30;;;;;;;8.03;56.51;102005.34;5070655;28;20705;-71
2022/01/30 11:49:48;;;;;;;28.40;6.10;;;;;;;8.65;53.42;102015.16;5071128;28;20745;-72
2022/01/30 11:52:16;;;;;;;31.50;7.07;;;;;;;9.17;52.18;101996.22;5071829;28;20201;-72
2022/01/30 11:54:45;;;;;;;33.10;7.10;;;;;;;8.77;52.97;102008.06;5071736;28;20264;-71
2022/01/30 11:57:19;;;;;;;30.60;7.37;;;;;;;8.37;54.16;102013.81;5070319;28;20626;-72
2022/01/30 11:59:46;;;;;;;37.37;8.30;;;;;;;8.30;55.31;102022.84;5071324;28;20309;-71
2022/01/30 12:02:31;;;;;;;29.60;6.83;;;;;;;7.99;56.62;102019.63;5071610;28;20217;-72
2022/01/30 12:05:05;;;;;;;27.30;6.67;;;;;;;8.24;54.72;102016.63;5060449;28;20197;-72
2022/01/30 12:07:41;;;;;;;32.50;7.17;;;;;;;8.05;55.58;102019.91;5051581;28;20324;-72
2022/01/30 12:10:16;;;;;;;33.63;6.77;;;;;;;8.07;55.48;102037.84;5071319;28;20212;-71
2022/01/30 12:12:49;;;;;;;31.47;6.97;;;;;;;7.95;56.31;102044.88;5071652;28;20188;-72
2022/01/30 12:15:34;;;;;;;29.10;6.37;;;;;;;7.84;56.45;102016.31;5057108;28;20301;-71
2022/01/30 12:18:00;;;;;;;37.33;7.63;;;;;;;7.74;55.97;102021.75;5071275;28;20165;-70
2022/01/30 12:20:26;;;;;;;30.97;6.90;;;;;;;7.73;55.83;102032.75;5069842;28;20211;-72
2022/01/30 12:22:53;;;;;;;31.20;6.40;;;;;;;7.57;55.99;102031.94;5065745;28;20256;-72
2022/01/30 12:25:21;;;;;;;27.03;6.30;;;;;;;7.70;56.30;102027.50;5055697;28;20188;-72